sensor_id;sensor_type;location;lat;lon;timestamp;temperature;humidity
29003;DHT22;16102;57.138;-2.118;2023-02-28T12:32:29;7.80;38.30
29003;DHT22;16102;57.138;-2.118;2023-02-28T12:35:02;7.70;99.90
29003;DHT22;16102;57.138;-2.118;2023-02-28T12:37:44;7.70;99.90
29003;DHT22;16102;57.138;-2.118;2023-02-28T12:40:21;7.60;99.90
29003;DHT22;16102;57.138;-2.118;2023-02-28T12:43:02;7.50;99.90
29003;DHT22;16102;57.138;-2.118;2023-02-28T12:45:49;7.60;99.90
29003;DHT22;16102;57.138;-2.118;2023-02-28T12:48:21;7.60;99.90
29003;DHT22;16102;57.138;-2.118;2023-02-28T12:50:51;7.60;99.90
29003;DHT22;16102;57.138;-2.118;2023-02-28T12:56:53;7.70;99.90
29003;DHT22;16102;57.138;-2.118;2023-02-28T12:59:38;7.70;99.10
29003;DHT22;16102;57.138;-2.118;2023-02-28T13:02:23;7.70;81.50
29003;DHT22;16102;57.138;-2.118;2023-02-28T13:10:47;7.70;45.10
29003;DHT22;16102;57.138;-2.118;2023-02-28T13:13:19;7.70;28.70
29003;DHT22;16102;57.138;-2.118;2023-02-28T13:18:45;7.70;14.90
29003;DHT22;16102;57.138;-2.118;2023-02-28T13:21:25;7.80;12.10
29003;DHT22;16102;57.138;-2.118;2023-02-28T13:34:46;7.80;1.00
29003;DHT22;16102;57.138;-2.118;2023-02-28T13:37:44;7.80;1.00
29003;DHT22;16102;57.138;-2.118;2023-02-28T13:40:28;7.70;1.00
29003;DHT22;16102;57.138;-2.118;2023-02-28T13:42:56;7.70;1.00
29003;DHT22;16102;57.138;-2.118;2023-02-28T13:45:28;7.70;1.00
29003;DHT22;16102;57.138;-2.118;2023-02-28T13:48:16;7.60;1.00
29003;DHT22;16102;57.138;-2.118;2023-02-28T13:50:44;7.60;1.00
29003;DHT22;16102;57.138;-2.118;2023-02-28T13:58:59;7.60;24.10
29003;DHT22;16102;57.138;-2.118;2023-02-28T14:06:52;7.40;69.10
29003;DHT22;16102;57.138;-2.118;2023-02-28T14:09:30;7.40;78.20
29003;DHT22;16102;57.138;-2.118;2023-02-28T14:15:26;7.30;38.00
29003;DHT22;16102;57.138;-2.118;2023-02-28T14:17:53;7.30;40.80
29003;DHT22;16102;57.138;-2.118;2023-02-28T14:20:23;7.30;44.60
29003;DHT22;16102;57.138;-2.118;2023-02-28T14:36:23;7.50;1.00
29003;DHT22;16102;57.138;-2.118;2023-02-28T14:38:54;7.60;1.00
29003;DHT22;16102;57.138;-2.118;2023-02-28T14:41:24;7.60;1.00
29003;DHT22;16102;57.138;-2.118;2023-02-28T14:43:59;7.70;1.00
29003;DHT22;16102;57.138;-2.118;2023-02-28T14:46:35;7.70;1.00
29003;DHT22;16102;57.138;-2.118;2023-02-28T14:49:05;7.70;1.00
29003;DHT22;16102;57.138;-2.118;2023-02-28T14:51:33;7.70;1.00
29003;DHT22;16102;57.138;-2.118;2023-02-28T14:54:02;7.70;1.00
29003;DHT22;16102;57.138;-2.118;2023-02-28T14:56:37;7.80;1.00
29003;DHT22;16102;57.138;-2.118;2023-02-28T14:59:18;7.80;1.00
29003;DHT22;16102;57.138;-2.118;2023-02-28T15:01:52;7.80;1.00
29003;DHT22;16102;57.138;-2.118;2023-02-28T15:04:26;7.80;1.00
29003;DHT22;16102;57.138;-2.118;2023-02-28T15:07:13;7.80;1.00
29003;DHT22;16102;57.138;-2.118;2023-02-28T15:09:41;7.80;1.00
29003;DHT22;16102;57.138;-2.118;2023-02-28T15:12:13;7.70;1.00
29003;DHT22;16102;57.138;-2.118;2023-02-28T15:14:43;7.70;1.00
29003;DHT22;16102;57.138;-2.118;2023-02-28T15:17:19;7.80;1.00
29003;DHT22;16102;57.138;-2.118;2023-02-28T15:19:51;7.70;1.00
29003;DHT22;16102;57.138;-2.118;2023-02-28T15:22:32;7.70;1.00
29003;DHT22;16102;57.138;-2.118;2023-02-28T15:25:00;7.70;1.00
29003;DHT22;16102;57.138;-2.118;2023-02-28T15:27:32;7.80;1.00
29003;DHT22;16102;57.138;-2.118;2023-02-28T15:30:15;7.80;1.00
29003;DHT22;16102;57.138;-2.118;2023-02-28T15:32:43;7.80;1.00
29003;DHT22;16102;57.138;-2.118;2023-02-28T15:35:28;7.80;1.00
29003;DHT22;16102;57.138;-2.118;2023-02-28T15:38:23;7.80;1.00
29003;DHT22;16102;57.138;-2.118;2023-02-28T15:40:56;7.60;1.00
29003;DHT22;16102;57.138;-2.118;2023-02-28T15:50:57;7.20;99.90
29003;DHT22;16102;57.138;-2.118;2023-02-28T15:53:35;7.10;99.90
29003;DHT22;16102;57.138;-2.118;2023-02-28T15:56:05;7.10;99.90
29003;DHT22;16102;57.138;-2.118;2023-02-28T15:58:35;7.10;99.90
29003;DHT22;16102;57.138;-2.118;2023-02-28T16:01:25;7.10;99.90
29003;DHT22;16102;57.138;-2.118;2023-02-28T16:03:54;7.00;99.90
29003;DHT22;16102;57.138;-2.118;2023-02-28T16:08:52;7.10;1.00
29003;DHT22;16102;57.138;-2.118;2023-02-28T16:11:21;7.10;1.00
29003;DHT22;16102;57.138;-2.118;2023-02-28T16:13:49;7.20;1.00
29003;DHT22;16102;57.138;-2.118;2023-02-28T16:16:23;7.30;1.00
29003;DHT22;16102;57.138;-2.118;2023-02-28T16:18:51;7.30;1.00
29003;DHT22;16102;57.138;-2.118;2023-02-28T16:21:18;7.30;99.90
29003;DHT22;16102;57.138;-2.118;2023-02-28T16:23:45;7.40;99.90
29003;DHT22;16102;57.138;-2.118;2023-02-28T16:26:20;7.30;99.90
29003;DHT22;16102;57.138;-2.118;2023-02-28T16:28:47;7.20;99.90
29003;DHT22;16102;57.138;-2.118;2023-02-28T16:31:15;7.10;99.90
29003;DHT22;16102;57.138;-2.118;2023-02-28T16:33:44;7.10;99.90
29003;DHT22;16102;57.138;-2.118;2023-02-28T16:36:20;7.10;99.90
29003;DHT22;16102;57.138;-2.118;2023-02-28T16:38:47;7.10;99.90
29003;DHT22;16102;57.138;-2.118;2023-02-28T16:41:27;7.10;99.90
29003;DHT22;16102;57.138;-2.118;2023-02-28T16:43:57;7.00;99.90
29003;DHT22;16102;57.138;-2.118;2023-02-28T16:46:32;7.10;99.90
29003;DHT22;16102;57.138;-2.118;2023-02-28T16:49:00;7.10;99.90
29003;DHT22;16102;57.138;-2.118;2023-02-28T16:51:27;7.10;99.90
29003;DHT22;16102;57.138;-2.118;2023-02-28T16:53:55;7.10;99.90
29003;DHT22;16102;57.138;-2.118;2023-02-28T16:56:23;7.20;91.60
29003;DHT22;16102;57.138;-2.118;2023-02-28T16:58:51;7.20;58.50
29003;DHT22;16102;57.138;-2.118;2023-02-28T17:01:21;7.20;53.60
29003;DHT22;16102;57.138;-2.118;2023-02-28T17:03:49;7.10;35.70
29003;DHT22;16102;57.138;-2.118;2023-02-28T17:06:25;7.00;51.50
29003;DHT22;16102;57.138;-2.118;2023-02-28T17:08:56;6.90;99.90
29003;DHT22;16102;57.138;-2.118;2023-02-28T17:11:24;6.90;99.90
29003;DHT22;16102;57.138;-2.118;2023-02-28T17:13:51;6.90;99.90
29003;DHT22;16102;57.138;-2.118;2023-02-28T17:16:30;6.70;99.90
29003;DHT22;16102;57.138;-2.118;2023-02-28T17:19:00;6.70;99.90
29003;DHT22;16102;57.138;-2.118;2023-02-28T17:21:28;6.70;99.90
29003;DHT22;16102;57.138;-2.118;2023-02-28T17:23:55;6.70;99.90
29003;DHT22;16102;57.138;-2.118;2023-02-28T17:26:23;6.70;99.90
29003;DHT22;16102;57.138;-2.118;2023-02-28T17:28:55;6.60;99.90
29003;DHT22;16102;57.138;-2.118;2023-02-28T17:31:24;6.60;99.90
29003;DHT22;16102;57.138;-2.118;2023-02-28T17:33:52;6.50;99.90
29003;DHT22;16102;57.138;-2.118;2023-02-28T17:36:24;6.50;99.90
29003;DHT22;16102;57.138;-2.118;2023-02-28T17:38:53;6.50;99.90
29003;DHT22;16102;57.138;-2.118;2023-02-28T17:41:22;6.50;99.90
29003;DHT22;16102;57.138;-2.118;2023-02-28T17:43:49;6.50;99.90
29003;DHT22;16102;57.138;-2.118;2023-02-28T17:46:21;6.50;99.90
29003;DHT22;16102;57.138;-2.118;2023-02-28T17:48:49;6.50;99.90
29003;DHT22;16102;57.138;-2.118;2023-02-28T17:51:18;6.50;99.90
29003;DHT22;16102;57.138;-2.118;2023-02-28T17:53:46;6.50;99.90
29003;DHT22;16102;57.138;-2.118;2023-02-28T17:56:25;6.50;99.90
29003;DHT22;16102;57.138;-2.118;2023-02-28T17:58:54;6.50;99.90
29003;DHT22;16102;57.138;-2.118;2023-02-28T18:01:22;6.50;99.90
29003;DHT22;16102;57.138;-2.118;2023-02-28T18:03:50;6.60;99.90
29003;DHT22;16102;57.138;-2.118;2023-02-28T18:06:23;6.60;99.90
29003;DHT22;16102;57.138;-2.118;2023-02-28T18:08:51;6.60;99.90
29003;DHT22;16102;57.138;-2.118;2023-02-28T18:11:19;6.60;99.90
29003;DHT22;16102;57.138;-2.118;2023-02-28T18:13:51;6.60;99.90
29003;DHT22;16102;57.138;-2.118;2023-02-28T18:16:19;6.60;99.90
29003;DHT22;16102;57.138;-2.118;2023-02-28T18:18:48;6.60;99.90
29003;DHT22;16102;57.138;-2.118;2023-02-28T18:21:16;6.60;99.90
29003;DHT22;16102;57.138;-2.118;2023-02-28T18:23:43;6.60;99.90
29003;DHT22;16102;57.138;-2.118;2023-02-28T18:26:15;6.60;99.90
29003;DHT22;16102;57.138;-2.118;2023-02-28T18:28:42;6.60;99.90
29003;DHT22;16102;57.138;-2.118;2023-02-28T18:31:18;6.60;99.90
29003;DHT22;16102;57.138;-2.118;2023-02-28T18:33:50;6.60;99.90
29003;DHT22;16102;57.138;-2.118;2023-02-28T18:36:19;6.60;99.90
29003;DHT22;16102;57.138;-2.118;2023-02-28T18:38:49;6.60;99.90
29003;DHT22;16102;57.138;-2.118;2023-02-28T18:41:18;6.60;99.90
29003;DHT22;16102;57.138;-2.118;2023-02-28T18:43:48;6.60;99.90
29003;DHT22;16102;57.138;-2.118;2023-02-28T18:46:19;6.60;99.90
29003;DHT22;16102;57.138;-2.118;2023-02-28T18:48:46;6.60;99.90
29003;DHT22;16102;57.138;-2.118;2023-02-28T18:51:16;6.60;97.30
29003;DHT22;16102;57.138;-2.118;2023-02-28T18:53:44;6.70;78.10
29003;DHT22;16102;57.138;-2.118;2023-02-28T18:56:14;6.70;48.10
29003;DHT22;16102;57.138;-2.118;2023-02-28T18:58:42;6.70;29.00
29003;DHT22;16102;57.138;-2.118;2023-02-28T19:01:18;6.70;7.80
29003;DHT22;16102;57.138;-2.118;2023-02-28T19:03:47;6.70;1.00
29003;DHT22;16102;57.138;-2.118;2023-02-28T19:06:16;6.70;1.00
29003;DHT22;16102;57.138;-2.118;2023-02-28T19:08:43;6.80;1.00
29003;DHT22;16102;57.138;-2.118;2023-02-28T19:11:13;6.70;1.00
29003;DHT22;16102;57.138;-2.118;2023-02-28T19:13:40;6.80;1.00
29003;DHT22;16102;57.138;-2.118;2023-02-28T19:16:08;6.70;1.00
29003;DHT22;16102;57.138;-2.118;2023-02-28T19:18:37;6.70;1.00
29003;DHT22;16102;57.138;-2.118;2023-02-28T19:21:08;6.70;1.00
29003;DHT22;16102;57.138;-2.118;2023-02-28T19:23:36;6.80;1.00
29003;DHT22;16102;57.138;-2.118;2023-02-28T19:26:11;6.80;1.00
29003;DHT22;16102;57.138;-2.118;2023-02-28T19:28:39;6.70;1.00
29003;DHT22;16102;57.138;-2.118;2023-02-28T19:31:18;6.70;1.00
29003;DHT22;16102;57.138;-2.118;2023-02-28T19:33:46;6.70;1.00
29003;DHT22;16102;57.138;-2.118;2023-02-28T19:36:14;6.70;1.00
29003;DHT22;16102;57.138;-2.118;2023-02-28T19:38:41;6.70;1.00
29003;DHT22;16102;57.138;-2.118;2023-02-28T19:41:12;6.70;1.00
29003;DHT22;16102;57.138;-2.118;2023-02-28T19:43:39;6.70;1.00
29003;DHT22;16102;57.138;-2.118;2023-02-28T19:46:08;6.80;1.00
29003;DHT22;16102;57.138;-2.118;2023-02-28T19:48:37;6.70;1.00
29003;DHT22;16102;57.138;-2.118;2023-02-28T19:51:11;6.80;1.00
29003;DHT22;16102;57.138;-2.118;2023-02-28T19:53:40;6.80;1.00
29003;DHT22;16102;57.138;-2.118;2023-02-28T19:56:09;6.80;1.00
29003;DHT22;16102;57.138;-2.118;2023-02-28T19:58:37;6.80;1.00
29003;DHT22;16102;57.138;-2.118;2023-02-28T20:01:10;6.80;1.00
29003;DHT22;16102;57.138;-2.118;2023-02-28T20:03:40;6.80;1.00
29003;DHT22;16102;57.138;-2.118;2023-02-28T20:06:10;6.80;1.00
29003;DHT22;16102;57.138;-2.118;2023-02-28T20:08:40;6.70;1.00
29003;DHT22;16102;57.138;-2.118;2023-02-28T20:11:13;6.80;1.00
29003;DHT22;16102;57.138;-2.118;2023-02-28T20:13:42;6.80;1.00
29003;DHT22;16102;57.138;-2.118;2023-02-28T20:16:10;6.70;1.00
29003;DHT22;16102;57.138;-2.118;2023-02-28T20:18:39;6.70;1.00
29003;DHT22;16102;57.138;-2.118;2023-02-28T20:21:07;6.80;1.00
29003;DHT22;16102;57.138;-2.118;2023-02-28T20:23:37;6.70;1.00
29003;DHT22;16102;57.138;-2.118;2023-02-28T20:26:04;6.70;1.00
29003;DHT22;16102;57.138;-2.118;2023-02-28T20:28:32;6.70;1.00
29003;DHT22;16102;57.138;-2.118;2023-02-28T20:31:02;6.70;1.00
29003;DHT22;16102;57.138;-2.118;2023-02-28T20:33:29;6.70;1.00
29003;DHT22;16102;57.138;-2.118;2023-02-28T20:36:00;6.70;1.00
29003;DHT22;16102;57.138;-2.118;2023-02-28T20:38:27;6.60;1.00
29003;DHT22;16102;57.138;-2.118;2023-02-28T20:40:58;6.70;1.00
29003;DHT22;16102;57.138;-2.118;2023-02-28T20:43:26;6.70;1.00
29003;DHT22;16102;57.138;-2.118;2023-02-28T20:45:55;6.70;1.00
29003;DHT22;16102;57.138;-2.118;2023-02-28T20:48:24;6.70;1.00
29003;DHT22;16102;57.138;-2.118;2023-02-28T20:50:55;6.70;1.00
29003;DHT22;16102;57.138;-2.118;2023-02-28T20:53:24;6.60;1.00
29003;DHT22;16102;57.138;-2.118;2023-02-28T20:56:03;6.70;1.00
29003;DHT22;16102;57.138;-2.118;2023-02-28T20:58:36;6.60;1.00
29003;DHT22;16102;57.138;-2.118;2023-02-28T21:01:14;6.60;1.00
29003;DHT22;16102;57.138;-2.118;2023-02-28T21:03:47;6.60;1.00
29003;DHT22;16102;57.138;-2.118;2023-02-28T21:06:16;6.60;1.00
29003;DHT22;16102;57.138;-2.118;2023-02-28T21:08:46;6.60;3.50
29003;DHT22;16102;57.138;-2.118;2023-02-28T21:11:51;6.60;13.80
29003;DHT22;16102;57.138;-2.118;2023-02-28T21:14:16;6.60;27.50
29003;DHT22;16102;57.138;-2.118;2023-02-28T21:16:46;6.50;55.20
29003;DHT22;16102;57.138;-2.118;2023-02-28T21:19:13;6.50;84.40
29003;DHT22;16102;57.138;-2.118;2023-02-28T21:21:44;6.50;97.10
29003;DHT22;16102;57.138;-2.118;2023-02-28T21:24:15;6.50;99.90
29003;DHT22;16102;57.138;-2.118;2023-02-28T21:26:43;6.40;99.90
29003;DHT22;16102;57.138;-2.118;2023-02-28T21:29:11;6.50;99.90
29003;DHT22;16102;57.138;-2.118;2023-02-28T21:31:40;6.50;99.90
29003;DHT22;16102;57.138;-2.118;2023-02-28T21:34:09;6.50;99.90
29003;DHT22;16102;57.138;-2.118;2023-02-28T21:36:39;6.50;98.30
29003;DHT22;16102;57.138;-2.118;2023-02-28T21:39:11;6.60;91.10
29003;DHT22;16102;57.138;-2.118;2023-02-28T21:41:38;6.50;71.00
29003;DHT22;16102;57.138;-2.118;2023-02-28T21:44:09;6.50;51.70
29003;DHT22;16102;57.138;-2.118;2023-02-28T21:46:49;6.50;22.90
29003;DHT22;16102;57.138;-2.118;2023-02-28T21:49:18;6.60;7.60
29003;DHT22;16102;57.138;-2.118;2023-02-28T21:51:45;6.60;1.00
29003;DHT22;16102;57.138;-2.118;2023-02-28T21:54:13;6.60;1.00
29003;DHT22;16102;57.138;-2.118;2023-02-28T21:56:40;6.60;1.00
29003;DHT22;16102;57.138;-2.118;2023-02-28T21:59:10;6.50;1.00
29003;DHT22;16102;57.138;-2.118;2023-02-28T22:01:39;6.60;1.00
29003;DHT22;16102;57.138;-2.118;2023-02-28T22:04:09;6.60;1.00
29003;DHT22;16102;57.138;-2.118;2023-02-28T22:06:41;6.60;1.00
29003;DHT22;16102;57.138;-2.118;2023-02-28T22:09:10;6.60;1.00
29003;DHT22;16102;57.138;-2.118;2023-02-28T22:11:38;6.60;1.00
29003;DHT22;16102;57.138;-2.118;2023-02-28T22:14:06;6.60;1.00
29003;DHT22;16102;57.138;-2.118;2023-02-28T22:16:36;6.50;1.00
29003;DHT22;16102;57.138;-2.118;2023-02-28T22:19:19;6.50;1.00
29003;DHT22;16102;57.138;-2.118;2023-02-28T22:21:46;6.50;1.00
29003;DHT22;16102;57.138;-2.118;2023-02-28T22:24:13;6.50;1.00
29003;DHT22;16102;57.138;-2.118;2023-02-28T22:26:43;6.50;1.00
29003;DHT22;16102;57.138;-2.118;2023-02-28T22:29:10;6.50;1.00
29003;DHT22;16102;57.138;-2.118;2023-02-28T22:31:44;6.50;1.00
29003;DHT22;16102;57.138;-2.118;2023-02-28T22:34:12;6.40;1.00
29003;DHT22;16102;57.138;-2.118;2023-02-28T22:36:41;6.30;1.00
29003;DHT22;16102;57.138;-2.118;2023-02-28T22:39:12;6.40;1.00
29003;DHT22;16102;57.138;-2.118;2023-02-28T22:41:39;6.30;1.00
29003;DHT22;16102;57.138;-2.118;2023-02-28T22:44:06;6.20;1.00
29003;DHT22;16102;57.138;-2.118;2023-02-28T22:46:34;6.10;1.00
29003;DHT22;16102;57.138;-2.118;2023-02-28T22:49:04;6.10;1.00
29003;DHT22;16102;57.138;-2.118;2023-02-28T22:51:31;6.10;1.00
29003;DHT22;16102;57.138;-2.118;2023-02-28T22:53:59;6.00;1.00
29003;DHT22;16102;57.138;-2.118;2023-02-28T22:56:28;5.90;1.00
29003;DHT22;16102;57.138;-2.118;2023-02-28T22:58:57;5.90;1.00
29003;DHT22;16102;57.138;-2.118;2023-02-28T23:01:27;5.80;1.00
29003;DHT22;16102;57.138;-2.118;2023-02-28T23:03:54;5.80;1.00
29003;DHT22;16102;57.138;-2.118;2023-02-28T23:06:26;5.80;1.00
29003;DHT22;16102;57.138;-2.118;2023-02-28T23:08:58;5.70;1.00
29003;DHT22;16102;57.138;-2.118;2023-02-28T23:11:29;5.70;1.00
29003;DHT22;16102;57.138;-2.118;2023-02-28T23:13:59;5.60;1.00
29003;DHT22;16102;57.138;-2.118;2023-02-28T23:19:13;5.60;18.50
29003;DHT22;16102;57.138;-2.118;2023-02-28T23:21:42;5.50;32.80
29003;DHT22;16102;57.138;-2.118;2023-02-28T23:24:10;5.50;50.80
29003;DHT22;16102;57.138;-2.118;2023-02-28T23:26:44;5.50;69.80
29003;DHT22;16102;57.138;-2.118;2023-02-28T23:29:13;5.50;91.50
29003;DHT22;16102;57.138;-2.118;2023-02-28T23:31:41;5.50;99.90
29003;DHT22;16102;57.138;-2.118;2023-02-28T23:34:08;5.60;99.90
29003;DHT22;16102;57.138;-2.118;2023-02-28T23:36:37;5.50;99.90
29003;DHT22;16102;57.138;-2.118;2023-02-28T23:39:05;5.50;99.90
29003;DHT22;16102;57.138;-2.118;2023-02-28T23:41:32;5.40;99.90
29003;DHT22;16102;57.138;-2.118;2023-02-28T23:43:58;5.50;99.90
29003;DHT22;16102;57.138;-2.118;2023-02-28T23:46:25;5.50;99.90
29003;DHT22;16102;57.138;-2.118;2023-02-28T23:48:52;5.50;99.90
29003;DHT22;16102;57.138;-2.118;2023-02-28T23:51:20;5.50;99.90
29003;DHT22;16102;57.138;-2.118;2023-02-28T23:53:49;5.50;99.90
29003;DHT22;16102;57.138;-2.118;2023-02-28T23:56:19;5.50;99.90
29003;DHT22;16102;57.138;-2.118;2023-02-28T23:58:47;5.50;99.90
